Terminal Aerodrome Forecast
Issued by NWS

Home | Current Version | Previous Version | Graphics & Text | Print | Product List | Glossary On
Versions: 1 2 3 4 5 6 7 8 9 10 11 12 13 14 15 16 17 18 19
000
FTUS43 KTOP 211300 AAA
TAFFOE
TAF AMD
KFOE 211338Z 2114/2212 18012KT P6SM OVC014
      TEMPO 2114/2117 4SM BR OVC006
     FM212300 17014KT 3SM -DZ BR OVC012
     FM220900 18013KT 3SM -RA BR OVC017=

USA.gov is the U.S. government's official web portal to all federal, state and local government web resources and services.